Weather observations for the past three days for
Pagosa Springs, Wolf Creek Pass
| Date | Time (mdt) | Wind (kph) | Vis. (km) | Weather | Sky Cond. | Temperature (ºC) | Relative Humidity | Wind Chill (°C) | Heat Index (°C) | Pressure | Precipitation (cm) | ||||||
|---|---|---|---|---|---|---|---|---|---|---|---|---|---|---|---|---|---|
| Air | Dwpt | 6 hour | altimeter (cm) | sea level (mb) | 1 hr | 3 hr | 6 hr | ||||||||||
| Max. | Min. | ||||||||||||||||
| 08 | 06:35 | W 7 | 16.09 | Overcast | OVC050 | 0 | -8 | 55% | -2 | 77.09 | 0.0 | ||||||
| 08 | 06:15 | W 6 | 16.09 | Overcast | OVC050 | 0 | -8 | 55% | 77.06 | 0.0 | |||||||
| 08 | 05:55 | W 9 | 16.09 | Partly Cloudy | SCT050 | 0 | -8 | 55% | -3 | 77.06 | 0.0 | ||||||
| 08 | 05:35 | NW 13 | 16.09 | Partly Cloudy | SCT050 | 0 | -7 | 60% | -4 | 77.06 | 0.0 | ||||||
| 08 | 05:15 | W 7 | 16.09 | Mostly Cloudy | BKN050 | 0 | -7 | 60% | -2 | 77.06 | 0.0 | ||||||
| 08 | 04:55 | W 7 | 16.09 | Overcast | OVC055 | 1 | -7 | 56% | -1 | 77.09 | 0.0 | ||||||
| 08 | 04:35 | NW 9 | 16.09 | Mostly Cloudy | BKN055 BKN120 | 0 | -7 | 60% | -3 | 77.09 | 0.0 | ||||||
| 08 | 04:15 | W 9 | 16.09 | Overcast | OVC055 | 0 | -7 | 60% | -3 | 77.09 | 0.0 | ||||||
| 08 | 03:55 | W 17 | 16.09 | Overcast | OVC065 | 0 | -7 | 60% | -4 | 77.09 | 0.0 | ||||||
| 08 | 03:35 | W 11 | 16.09 | Overcast | OVC065 | 0 | -7 | 60% | -3 | 77.06 | 0.0 | ||||||
| 08 | 03:15 | NW 13 | 16.09 | Partly Cloudy | SCT065 | 1 | -7 | 56% | -2 | 77.09 | 0.0 | ||||||
| 08 | 02:55 | W 6 | 16.09 | Partly Cloudy | SCT075 | 0 | -7 | 60% | 77.11 | 0.0 | |||||||
| 08 | 02:35 | Calm | 16.09 | Fair | CLR | 0 | -7 | 60% | 77.14 | 0.0 | |||||||
| 08 | 02:15 | NW 11 | 16.09 | Fair | CLR | 1 | -8 | 51% | -2 | 77.14 | 0.0 | ||||||
| 08 | 01:55 | NW 9 | 16.09 | Fair | CLR | 1 | -8 | 51% | -2 | 77.11 | 0.0 | ||||||
| 08 | 01:35 | N 9 | 16.09 | Mostly Cloudy | BKN090 | 1 | -8 | 51% | -2 | 77.14 | 0.0 | ||||||
| 08 | 01:15 | NW 9 | 16.09 | Overcast | SCT075 OVC090 | 1 | -8 | 51% | -2 | 77.14 | 0.0 | ||||||
| 08 | 00:55 | NW 11 | 16.09 | Overcast | OVC075 | 1 | -8 | 51% | -2 | 77.14 | 0.0 | ||||||
| 08 | 00:35 | NW 15 | 16.09 | Overcast | SCT060 BKN075 OVC085 | 1 | -7 | 56% | -3 | 77.14 | 0.0 | ||||||
| 08 | 00:15 | W 11 | 16.09 | Overcast | BKN060 OVC075 | 1 | -7 | 56% | -2 | 77.14 | 0.0 | ||||||
| 07 | 23:55 | NW 7 | 16.09 | Overcast | SCT060 OVC085 | 1 | -7 | 56% | -1 | 77.14 | 0.0 | ||||||
| 07 | 23:35 | NW 15 | 16.09 | Overcast | OVC085 | 1 | -7 | 56% | -3 | 77.14 | 0.0 | ||||||
| 07 | 23:15 | NW 15 | 16.09 | Mostly Cloudy | BKN085 | 1 | -8 | 51% | -3 | 77.14 | 0.0 | ||||||
| 07 | 22:55 | NW 7 | 16.09 | Partly Cloudy | SCT085 | 1 | -8 | 51% | -1 | 77.14 | 0.0 | ||||||
| 07 | 22:35 | NW 7 | 16.09 | Fair | CLR | 1 | -8 | 51% | -1 | 77.14 | 0.0 | ||||||
| 07 | 22:15 | Calm | 16.09 | Fair | CLR | 1 | -9 | 48% | 77.14 | 0.0 | |||||||
| 07 | 21:55 | NW 6 | 16.09 | Fair | CLR | 1 | -9 | 48% | 77.14 | 0.0 | |||||||
| 07 | 21:35 | NW 6 | 16.09 | Fair | CLR | 1 | -8 | 51% | 77.14 | 0.0 | |||||||
| 07 | 21:15 | NW 7 | 16.09 | Fair | CLR | 1 | -8 | 51% | -1 | 77.14 | 0.0 | ||||||
| 07 | 20:55 | NW 11 | 16.09 | Fair | CLR | 2 | -8 | 48% | -1 | 77.11 | 0.0 | ||||||
| 07 | 20:35 | NW 9 | 16.09 | Fair | CLR | 2 | -8 | 48% | -0 | 77.09 | 0.0 | ||||||
| 07 | 20:15 | NW 6 | 16.09 | Partly Cloudy | SCT055 SCT080 | 2 | -10 | 41% | 77.11 | 0.0 | |||||||
| 07 | 19:55 | W 11 | 16.09 | Overcast | SCT055 OVC080 | 2 | -10 | 41% | -1 | 77.09 | 0.0 | ||||||
| 07 | 19:35 | SW 9 | 16.09 | Overcast | SCT049 SCT055 OVC080 | 3 | -10 | 38% | 1 | 77.06 | 0.0 | ||||||
| 07 | 19:15 | W 9 | 16.09 | Overcast | SCT049 BKN070 OVC080 | 3 | -10 | 38% | 1 | 77.06 | 0.0 | ||||||
| 07 | 18:55 | W 11 | 16.09 | Overcast | SCT060 SCT070 OVC080 | 3 | -10 | 38% | 0 | 77.06 | 0.0 | ||||||
| 07 | 18:35 | SW 13 | 16.09 | Mostly Cloudy | SCT065 BKN080 | 3 | -8 | 45% | 0 | 77.06 | 0.0 | ||||||
| 07 | 18:15 | SW 19 G 26 | 16.09 | Partly Cloudy | SCT080 | 4 | -9 | 39% | 0 | 77.06 | 0.0 | ||||||
| 07 | 17:55 | W 15 G 30 | 16.09 | Fair | CLR | 4 | -8 | 42% | 1 | 77.06 | 0.0 | ||||||
| 07 | 17:35 | W 13 | 16.09 | Fair | CLR | 5 | -9 | 36% | 2 | 77.06 | 0.0 | ||||||
| 07 | 17:15 | SW 13 | 16.09 | Fair | CLR | 5 | -9 | 36% | 2 | 77.06 | 0.0 | ||||||
| 07 | 16:55 | W 15 | 16.09 | Fair | CLR | 5 | -8 | 39% | 2 | 77.06 | 0.0 | ||||||
| 07 | 16:35 | W 13 G 30 | 16.09 | Fair | CLR | 5 | -8 | 39% | 2 | 77.06 | 0.0 | ||||||
| 07 | 16:15 | W 13 G 28 | 16.09 | Fair | CLR | 4 | -8 | 42% | 1 | 77.06 | 0.0 | ||||||
| 07 | 15:55 | W 19 G 26 | 16.09 | Fair | CLR | 4 | -8 | 42% | 0 | 77.06 | 0.0 | ||||||
| 07 | 15:35 | SW 17 G 28 | 16.09 | Fair | CLR | 4 | -7 | 45% | 1 | 77.09 | 0.0 | ||||||
| 07 | 15:15 | W 15 G 31 | 16.09 | Fair | CLR | 3 | -7 | 48% | -0 | 77.09 | 0.0 | ||||||
| 07 | 14:55 | W 22 G 30 | 16.09 | Fair | CLR | 3 | -7 | 48% | -1 | 77.09 | 0.0 | ||||||
| 07 | 14:35 | W 24 G 31 | 16.09 | Fair | CLR | 2 | -7 | 52% | -3 | 77.11 | 0.0 | ||||||
| 07 | 14:15 | W 22 G 30 | 16.09 | Fair | CLR | 2 | -7 | 52% | -3 | 77.14 | 0.0 | ||||||
| 07 | 13:55 | W 15 G 30 | 16.09 | Fair | CLR | 2 | -7 | 52% | -2 | 77.14 | 0.0 | ||||||
| 07 | 13:35 | W 17 | 16.09 | Fair | CLR | 2 | -8 | 48% | -2 | 77.14 | 0.0 | ||||||
| 07 | 13:15 | SW 17 | 16.09 | Fair | CLR | 2 | -9 | 44% | -2 | 77.14 | 0.0 | ||||||
| 07 | 12:55 | SW 13 | 16.09 | Fair | CLR | 2 | -8 | 48% | -1 | 77.14 | 0.0 | ||||||
| 07 | 12:35 | SW 17 | 16.09 | Fair | CLR | 2 | -8 | 48% | -2 | 77.17 | 0.0 | ||||||
| 07 | 12:15 | SW 17 | 16.09 | Fair | CLR | 1 | -9 | 48% | -3 | 77.14 | 0.0 | ||||||
| 07 | 11:55 | SW 11 | 16.09 | Fair | CLR | 3 | -10 | 38% | 0 | 77.14 | 0.0 | ||||||
| 07 | 11:35 | SW 7 | 16.09 | Fair | CLR | 2 | -10 | 41% | 0 | 77.17 | 0.0 | ||||||
| 07 | 11:15 | SW 6 | 16.09 | Fair | CLR | 1 | -10 | 44% | 77.17 | 0.0 | |||||||
| 07 | 10:55 | W 9 | 16.09 | Fair | CLR | 1 | -11 | 41% | -2 | 77.17 | 0.0 | ||||||
| 07 | 10:35 | SW 7 | 16.09 | Fair | CLR | 0 | -15 | 32% | -2 | 77.17 | 0.0 | ||||||
| 07 | 10:15 | W 7 | 16.09 | Fair | CLR | 0 | -17 | 27% | -2 | 77.19 | 0.0 | ||||||
| 07 | 09:55 | W 11 | 16.09 | Fair | CLR | 0 | -19 | 23% | -3 | 77.17 | 0.0 | ||||||
| 07 | 09:35 | W 13 | 16.09 | Fair | CLR | -1 | -20 | 22% | -5 | 77.14 | 0.0 | ||||||
| 07 | 09:15 | SW 15 | 16.09 | Fair | CLR | -1 | -21 | 20% | -5 | 77.14 | 0.0 | ||||||
| 07 | 08:55 | SW 17 | 16.09 | Fair | CLR | -1 | -22 | 19% | -6 | 77.14 | 0.0 | ||||||
| 07 | 08:35 | W 17 | 16.09 | Fair | CLR | -3 | -21 | 24% | -8 | 77.14 | 0.0 | ||||||
| 07 | 08:15 | W 19 | 16.09 | Fair | CLR | -4 | -18 | 33% | -10 | 77.14 | 0.0 | ||||||
| 07 | 07:55 | W 19 | 16.09 | Fair | CLR | -4 | -20 | 28% | -10 | 77.14 | 0.0 | ||||||
| 07 | 07:35 | W 17 | 16.09 | Fair | CLR | -5 | -20 | 30% | -10 | 77.14 | 0.0 | ||||||
| 07 | 07:15 | SW 17 | 16.09 | Fair | CLR | -4 | -24 | 20% | -9 | 77.11 | 0.0 | ||||||
| 07 | 06:55 | SW 19 | 16.09 | Fair | CLR | -5 | -22 | 25% | -11 | 77.09 | 0.0 | ||||||
| 07 | 06:35 | W 19 | 16.09 | Fair | CLR | -5 | -22 | 25% | -11 | 77.06 | 0.0 | ||||||
| 07 | 06:15 | SW 13 | 16.09 | Fair | CLR | -5 | -26 | 18% | -10 | 77.06 | 0.0 | ||||||
| 07 | 05:55 | W 13 | 16.09 | Fair | CLR | -4 | -27 | 15% | -8 | 77.06 | 0.0 | ||||||
| 07 | 05:35 | W 13 | 16.09 | Fair | CLR | -4 | -26 | 16% | -8 | 77.06 | 0.0 | ||||||
| 07 | 05:15 | SW 11 | 16.09 | Fair | CLR | -4 | -25 | 18% | -8 | 77.06 | 0.0 | ||||||
| 07 | 04:55 | SW 6 | 16.09 | Fair | CLR | -3 | -28 | 13% | 77.06 | 0.0 | |||||||
| 07 | 04:35 | NW 6 | 16.09 | Fair | CLR | -3 | -28 | 13% | 77.06 | 0.0 | |||||||
| 07 | 04:15 | NW 7 | 16.09 | Fair | CLR | -3 | -27 | 14% | -6 | 77.06 | 0.0 | ||||||
| 07 | 03:55 | N 6 | 16.09 | Partly Cloudy | SCT110 | -4 | -24 | 20% | 77.06 | 0.0 | |||||||
| 07 | 03:35 | NW 9 | 16.09 | Partly Cloudy | SCT110 | -4 | -22 | 23% | -7 | 77.06 | 0.0 | ||||||
| 07 | 03:15 | Calm | 16.09 | Fair | CLR | -5 | -21 | 28% | 77.06 | 0.0 | |||||||
| 07 | 02:55 | NW 9 | 16.09 | Fair | CLR | -5 | -20 | 30% | -9 | 77.04 | 0.0 | ||||||
| 07 | 02:35 | N 7 | 16.09 | Fair | CLR | -6 | -18 | 38% | -9 | 77.06 | 0.0 | ||||||
| 07 | 02:15 | Calm | 16.09 | Fair | CLR | -7 | -15 | 53% | 77.04 | 0.0 | |||||||
| 07 | 01:55 | NE 6 | 16.09 | Fair | CLR | -7 | -15 | 53% | 77.04 | 0.0 | |||||||
| 07 | 01:35 | NE 9 | 16.09 | Fair | CLR | -7 | -15 | 53% | -11 | 77.04 | 0.0 | ||||||
| 07 | 01:15 | N 19 | 16.09 | Fair | CLR | -7 | -15 | 53% | -13 | 77.04 | 0.0 | ||||||
| 07 | 00:55 | N 15 | 16.09 | Fair | CLR | -7 | -14 | 58% | -12 | 77.04 | 0.0 | ||||||
| 07 | 00:35 | NE 17 | 16.09 | Fair | CLR | -7 | -13 | 63% | -13 | 77.04 | 0.0 | ||||||
| 07 | 00:15 | NE 11 | 16.09 | Fair | CLR | -7 | -13 | 63% | -12 | 77.01 | 0.0 | ||||||
| 06 | 23:55 | NE 13 | 16.09 | Fair | CLR | -7 | -13 | 63% | -12 | 76.99 | 0.0 | ||||||
| 06 | 23:35 | N 13 G 28 | 16.09 | Fair | CLR | -7 | -14 | 58% | -12 | 76.96 | 0.0 | ||||||
| 06 | 23:15 | N 17 G 26 | 16.09 | Fair | CLR | -7 | -14 | 58% | -13 | 76.96 | 0.0 | ||||||
| 06 | 22:55 | N 11 | 16.09 | Fair | CLR | -7 | -13 | 63% | -12 | 76.96 | 0.0 | ||||||
| 06 | 22:35 | N 17 | 16.09 | Fair | CLR | -7 | -13 | 63% | -13 | 76.96 | 0.0 | ||||||
| 06 | 22:15 | N 17 | 16.09 | Fair | CLR | -7 | -13 | 63% | -13 | 76.96 | 0.0 | ||||||
| 06 | 21:55 | N 13 | 16.09 | Fair | CLR | -7 | -13 | 63% | -12 | 76.94 | 0.0 | ||||||
| 06 | 21:35 | N 11 | 16.09 | Fair | CLR | -6 | -13 | 58% | -10 | 76.94 | 0.0 | ||||||
| 06 | 21:15 | N 9 | 16.09 | Fair | CLR | -6 | -12 | 63% | -10 | 76.91 | 0.0 | ||||||
| 06 | 20:55 | NE 9 | 16.09 | Fair | CLR | -6 | -13 | 58% | -10 | 76.89 | 0.0 | ||||||
| 06 | 20:35 | N 9 | 16.09 | Fair | CLR | -6 | -13 | 58% | -10 | 76.86 | 0.0 | ||||||
| 06 | 20:15 | N 9 | 16.09 | Fair | CLR | -5 | -12 | 58% | -9 | 76.84 | 0.0 | ||||||
| 06 | 19:55 | N 7 | 16.09 | Fair | CLR | -4 | -12 | 54% | -7 | 76.84 | 0.0 | ||||||
| 06 | 19:35 | NW 11 | 16.09 | Fair | CLR | -3 | -12 | 50% | -7 | 76.78 | 0.0 | ||||||
| 06 | 19:15 | NW 11 | 16.09 | Fair | CLR | -3 | -12 | 50% | -7 | 76.78 | 0.0 | ||||||
| 06 | 18:55 | N 11 | 16.09 | Fair | CLR | -3 | -12 | 50% | -7 | 76.73 | 0.0 | ||||||
| 06 | 18:35 | NW 11 | 16.09 | Fair | CLR | -2 | -12 | 47% | -6 | 76.73 | 0.0 | ||||||
| 06 | 18:15 | Calm | 16.09 | Fair | CLR | -2 | -13 | 43% | 76.71 | 0.0 | |||||||
| 06 | 17:55 | NW 13 | 16.09 | Fair | CLR | -2 | -13 | 43% | -6 | 76.68 | 0.0 | ||||||
| 06 | 17:35 | NW 15 | 16.09 | Fair | CLR | -2 | -12 | 47% | -6 | 76.66 | 0.0 | ||||||
| 06 | 17:15 | NW 11 G 26 | 16.09 | Fair | CLR | -2 | -12 | 47% | -6 | 76.63 | 0.0 | ||||||
| 06 | 16:55 | NW 9 | 16.09 | Partly Cloudy | SCT048 SCT055 | -1 | -12 | 43% | -4 | 76.61 | 0.0 | ||||||
| 06 | 16:35 | NW 7 | 16.09 | Mostly Cloudy | SCT032 SCT042 BKN055 | -2 | -11 | 51% | -4 | 76.58 | 0.0 | ||||||
| 06 | 16:15 | NW 7 | 16.09 | Mostly Cloudy | SCT003 SCT033 BKN055 | -2 | -5 | 80% | -4 | 76.56 | 0.0 | ||||||
| 06 | 15:55 | W 9 | 16.09 | Overcast | SCT003 SCT024 OVC050 | -4 | -4 | 100% | -7 | 76.56 | 0.0 | ||||||
| 06 | 15:35 | W 13 | 0.80 | Overcast | OVC001 | -3 | -3 | 100% | -7 | 76.56 | 0.0 | ||||||
| 06 | 15:15 | W 11 | 16.09 | Partly Cloudy | SCT020 SCT028 SCT041 | -3 | -3 | 100% | -7 | 76.53 | 0.0 | ||||||
| 06 | 14:55 | NW 7 | 16.09 | Overcast | SCT015 BKN031 OVC042 | -4 | -4 | 100% | -7 | 76.53 | 0.0 | ||||||
| 06 | 14:35 | NW 11 | 16.09 | Overcast | SCT026 BKN035 OVC075 | 0 | 0 | 0% | 76.5 | 0.0 | |||||||
| 06 | 14:15 | Calm | 0.00 | NULL | NULL | -5 | -5 | 100% | 76.5 | 0.0 | |||||||
| 06 | 13:55 | Calm | 0.00 | NULL | NULL | -6 | -6 | 100% | 76.48 | 0.0 | 0.03 | ||||||
| 06 | 13:35 | NW 15 | 0.00 | Thunderstorm | BKN001 BKN009 OVC014 | 0 | 0 | 0% | 76.43 | 0.0 | |||||||
| 06 | 13:15 | Calm | 0.00 | Overcast | OVC001 | -7 | -7 | 100% | 76.43 | 0.0 | |||||||
| 06 | 12:55 | NW 20 G 31 | 0.00 | Overcast | OVC001 | 0 | 0 | 0% | 76.43 | 0.0 | 0.05 | ||||||
| 06 | 12:35 | NW 24 G 30 | 0.00 | Overcast | OVC001 | 0 | 0 | 0% | 76.45 | 0.0 | 0.05 | ||||||
| 06 | 12:15 | W 13 G 31 | 0.00 | Overcast | OVC001 | 0 | 0 | 0% | 76.45 | 0.0 | 0.03 | ||||||
| 06 | 11:55 | Calm | 0.00 | Overcast | OVC001 | 0 | 0 | 0% | 76.4 | 0.0 | 0.2 | ||||||
| 06 | 11:35 | SW 28 | 0.00 | Overcast | OVC001 | 0 | 0 | 0% | 76.38 | 0.0 | 0.13 | ||||||
| 06 | 11:15 | SW 26 G 39 | 0.00 | Thunderstorm in Vicinity | OVC001 | 0 | 0 | 0% | 76.38 | 0.0 | 0.03 | ||||||
| 06 | 10:55 | Calm | 0.00 | Overcast | OVC001 | 0 | 0 | 0% | 76.35 | 0.0 | 0.15 | ||||||
| 06 | 10:35 | SW 30 | 0.00 | Overcast | OVC001 | 0 | 0 | 0% | 76.33 | 0.0 | 0.1 | ||||||
| 06 | 10:15 | SW 28 G 52 | 0.00 | Overcast | OVC001 | 0 | 0 | 0% | 76.35 | 0.0 | 0.03 | ||||||
| 06 | 09:55 | SW 33 | 0.00 | Overcast and Breezy | OVC001 | 0 | 0 | 0% | 76.33 | 0.0 | 0.08 | ||||||
| 06 | 09:35 | W 20 G 48 | 0.00 | Overcast | OVC001 | 0 | 0 | 0% | 76.35 | 0.0 | 0.08 | ||||||
| 06 | 09:15 | SW 30 | 0.00 | Overcast | OVC001 | 0 | 0 | 0% | 76.3 | 0.0 | 0.03 | ||||||
| 06 | 08:55 | Calm | 0.00 | Overcast | OVC001 | 0 | 0 | 0% | 76.3 | 0.0 | 0.05 | ||||||
| 06 | 08:35 | Calm | 0.00 | Overcast | OVC001 | 0 | 0 | 0% | 76.3 | 0.0 | 0.05 | ||||||
| 06 | 08:15 | Calm | 0.00 | Overcast | OVC001 | -5 | -5 | 100% | 76.3 | 0.0 | 0.03 | ||||||
| 06 | 07:55 | Calm | 0.00 | Overcast | OVC001 | -5 | -5 | 100% | 76.3 | 0.0 | 0.05 | ||||||
| 06 | 07:35 | SW 30 G 46 | 0.00 | Overcast | OVC001 | -5 | -5 | 100% | -12 | 76.3 | 0.0 | 0.05 | |||||
| 06 | 07:15 | Calm | 0.00 | Overcast | OVC001 | -5 | -5 | 100% | 76.3 | 0.0 | |||||||
| 06 | 06:55 | Calm | 0.00 | Overcast | OVC001 | -5 | -5 | 100% | 76.3 | 0.0 | 0.03 | ||||||
| 06 | 06:35 | Calm | 0.00 | Overcast | OVC001 | -5 | -5 | 100% | 76.25 | 0.0 | 0.03 | ||||||
| 06 | 06:15 | SW 30 G 44 | 0.00 | Overcast | OVC001 | -5 | -5 | 100% | -12 | 76.25 | 0.0 | ||||||
| 06 | 05:55 | SW 35 G 46 | 0.00 | Overcast and Breezy | OVC001 | -5 | -5 | 100% | -13 | 76.25 | 0.0 | 0.05 | |||||
| 06 | 05:35 | SW 28 G 39 | 0.00 | Overcast | OVC001 | -5 | -5 | 100% | -12 | 76.25 | 0.0 | 0.05 | |||||
| 06 | 05:15 | Calm | 0.00 | Overcast | OVC001 | -5 | -5 | 100% | 76.25 | 0.0 | 0.03 | ||||||
| 06 | 04:55 | W 24 G 46 | 0.00 | Overcast | OVC001 | -5 | -5 | 100% | -12 | 76.25 | 0.0 | 0.03 | |||||
| 06 | 04:35 | SW 26 | 1.21 | Overcast | OVC001 | -5 | -5 | 100% | -12 | 76.23 | 0.0 | 0.03 | |||||
| 06 | 04:15 | W 28 | 0.80 | Overcast | OVC001 | -5 | -5 | 100% | -12 | 76.25 | 0.0 | ||||||
| 06 | 03:55 | SW 28 G 39 | 0.80 | Overcast | OVC001 | -5 | -5 | 100% | -12 | 76.25 | 0.0 | 0.03 | |||||
| 06 | 03:35 | W 24 G 41 | 0.80 | Overcast | OVC001 | -5 | -5 | 100% | -12 | 76.25 | 0.0 | 0.03 | |||||
| 06 | 03:15 | SW 28 | 0.40 | Overcast | OVC001 | -6 | -6 | 100% | -13 | 76.25 | 0.0 | 0.03 | |||||
| 06 | 02:55 | SW 22 G 30 | 0.80 | Overcast | OVC003 | -6 | -6 | 100% | -13 | 76.28 | 0.0 | 0.13 | |||||
| 06 | 02:35 | Calm | 6.44 | Overcast | BKN001 BKN007 OVC041 | -6 | -6 | 100% | 76.3 | 0.0 | 0.08 | ||||||
| 06 | 02:15 | Calm | 0.80 | Overcast | OVC001 | -5 | -5 | 100% | 76.3 | 0.0 | |||||||
| 06 | 01:55 | SW 20 | 0.80 | Overcast | OVC001 | -5 | -5 | 100% | -11 | 76.3 | 0.0 | 0.05 | |||||
| 06 | 01:35 | Calm | 0.80 | Overcast | OVC001 | -5 | -5 | 100% | 76.33 | 0.0 | 0.03 | ||||||
| 06 | 01:15 | SW 20 | 1.21 | Overcast | OVC001 | -5 | -5 | 100% | -11 | 76.35 | 0.0 | ||||||
| 06 | 00:55 | SW 19 G 30 | 1.21 | Overcast | OVC001 | -5 | -5 | 100% | -11 | 76.35 | 0.0 | 0.08 | |||||
| 06 | 00:35 | W 17 G 28 | 0.80 | Overcast | OVC001 | -5 | -5 | 100% | -10 | 76.38 | 0.0 | 0.08 | |||||
| 06 | 00:15 | SW 24 | 0.80 | Overcast | OVC001 | -4 | -4 | 100% | -10 | 76.35 | 0.0 | 0.03 | |||||
| 05 | 23:55 | SW 30 | 0.40 | Overcast | OVC001 | -5 | -5 | 100% | -12 | 76.35 | 0.0 | 0.23 | |||||
| 05 | 23:35 | Calm | 0.80 | Overcast | OVC001 | -5 | -5 | 100% | 76.33 | 0.0 | 0.1 | ||||||
| 05 | 23:15 | Calm | 1.21 | Overcast | OVC001 | -5 | -5 | 100% | 76.38 | 0.0 | 0.03 | ||||||
| 05 | 22:55 | W 30 G 43 | 0.40 | Overcast | OVC001 | -4 | -4 | 100% | -11 | 76.35 | 0.0 | 0.1 | |||||
| 05 | 22:35 | SW 13 G 35 | 1.21 | Overcast | OVC001 | -4 | -4 | 100% | -8 | 76.35 | 0.0 | 0.1 | |||||
| 05 | 22:15 | Calm | 0.40 | Overcast | OVC001 | -4 | -4 | 100% | 76.33 | 0.0 | 0.1 | ||||||
| 05 | 21:55 | Calm | 0.80 | Overcast | OVC001 | -4 | -4 | 100% | 76.3 | 0.0 | 0.1 | ||||||
| 05 | 21:35 | Calm | 0.40 | Overcast | OVC001 | -4 | -4 | 100% | 76.3 | 0.0 | 0.05 | ||||||
| 05 | 21:15 | Calm | 1.21 | Overcast | OVC001 | -4 | -4 | 100% | 76.3 | 0.0 | |||||||
| 05 | 20:55 | SW 24 G 41 | 0.40 | Overcast | OVC001 | -3 | -3 | 100% | -9 | 76.33 | 0.0 | 0.03 | |||||
| 05 | 20:35 | W 19 G 44 | 0.40 | Overcast | OVC001 | -3 | -3 | 100% | -8 | 76.3 | 0.0 | 0.03 | |||||
| 05 | 20:15 | W 15 G 26 | 0.40 | Thunderstorm | OVC001 | -3 | -3 | 100% | -8 | 76.28 | 0.0 | 0.03 | |||||
| 05 | 19:55 | SW 20 G 31 | 0.24 | Thunderstorm | OVC001 | -3 | -3 | 100% | -9 | 76.25 | 0.0 | 0.05 | |||||
| 05 | 19:35 | W 19 G 35 | 0.80 | Thunderstorm | BKN003 OVC006 | -3 | -3 | 100% | -8 | 76.23 | 0.0 | ||||||
| 05 | 19:15 | SW 15 G 37 | 2.01 | Thunderstorm in Vicinity | SCT007 OVC017 | -2 | -4 | 86% | -6 | 76.2 | 0.0 | ||||||
| 05 | 18:55 | S 24 G 41 | 11.27 | Overcast | BKN022 OVC028 | -1 | -5 | 75% | -7 | 76.2 | 0.0 | ||||||
| 05 | 18:35 | SW 35 G 57 | 4.83 | Overcast and Breezy | SCT017 BKN024 OVC034 | -1 | -5 | 75% | -8 | 76.2 | 0.0 | ||||||
| 05 | 18:15 | SW 31 G 61 | 8.05 | Thunderstorm in Vicinity | SCT021 SCT027 OVC033 | -1 | -6 | 69% | -7 | 76.17 | 0.0 | ||||||
| 05 | 17:55 | SW 31 G 48 | 16.09 | Overcast | SCT031 BKN039 OVC047 | 0 | -7 | 60% | -6 | 76.17 | 0.0 | ||||||
| 05 | 17:35 | SW 33 G 50 | 16.09 | Overcast and Breezy | BKN040 BKN050 OVC060 | 0 | -7 | 60% | -6 | 76.17 | 0.0 | ||||||
| 05 | 17:15 | SW 26 G 46 | 16.09 | Overcast | BKN041 OVC049 | 0 | -8 | 55% | -6 | 76.17 | 0.0 | ||||||
| 05 | 16:55 | SW 33 G 43 | 16.09 | Overcast and Breezy | SCT028 BKN041 OVC049 | 0 | -7 | 60% | -6 | 76.2 | 0.0 | ||||||
| 05 | 16:35 | SW 35 G 54 | 16.09 | Overcast and Breezy | SCT026 BKN032 OVC046 | 0 | -7 | 60% | -7 | 76.2 | 0.0 | ||||||
| 05 | 16:15 | SW 37 G 56 | 16.09 | Overcast and Breezy | SCT029 BKN033 OVC047 | 0 | -7 | 60% | -7 | 76.2 | 0.0 | ||||||
| 05 | 15:55 | SW 31 G 50 | 16.09 | Overcast | SCT012 BKN031 OVC047 | 0 | -6 | 64% | -6 | 76.25 | 0.0 | ||||||
| 05 | 15:35 | SW 24 G 48 | 2.82 | Overcast | BKN014 BKN021 OVC026 | -1 | -6 | 69% | -7 | 76.28 | 0.0 | ||||||
| 05 | 15:15 | SW 37 G 61 | 6.44 | Overcast and Breezy | SCT016 SCT024 OVC032 | 0 | -7 | 60% | -7 | 76.25 | 0.0 | ||||||
| 05 | 14:55 | SW 43 G 61 | 11.27 | Overcast and Windy | SCT019 SCT024 OVC032 | 0 | -7 | 60% | -7 | 76.25 | 0.0 | ||||||
| 05 | 14:35 | SW 33 G 48 | 16.09 | Overcast and Breezy | BKN032 OVC040 | 0 | -7 | 60% | -6 | 76.3 | 0.0 | ||||||
| 05 | 14:15 | SW 41 G 61 | 16.09 | Mostly Cloudy and Breezy | SCT036 BKN042 BKN049 | 0 | -7 | 60% | -7 | 76.3 | 0.0 | ||||||
| 05 | 13:55 | SW 39 G 61 | 16.09 | Partly Cloudy and Breezy | SCT036 | 1 | -7 | 56% | -6 | 76.28 | 0.0 | ||||||
| 05 | 13:35 | SW 33 G 57 | 16.09 | Partly Cloudy and Breezy | SCT036 | 0 | -7 | 60% | -6 | 76.3 | 0.0 | ||||||
| 05 | 13:15 | SW 37 G 59 | 16.09 | Partly Cloudy and Breezy | SCT060 SCT075 | 0 | -7 | 60% | -7 | 76.3 | 0.0 | ||||||
| 05 | 12:55 | SW 37 G 59 | 16.09 | Overcast and Breezy | SCT050 BKN075 OVC085 | 0 | -7 | 60% | -7 | 76.3 | 0.0 | ||||||
| 05 | 12:35 | SW 48 G 61 | 16.09 | Mostly Cloudy and Windy | BKN075 | 0 | -8 | 55% | -8 | 76.3 | 0.0 | ||||||
| 05 | 12:15 | SW 37 G 50 | 16.09 | Mostly Cloudy and Breezy | BKN075 BKN090 | 0 | -8 | 55% | -7 | 76.3 | 0.0 | ||||||
| 05 | 11:55 | SW 33 G 50 | 16.09 | Overcast and Breezy | SCT047 BKN065 OVC090 | -1 | -7 | 64% | -8 | 76.3 | 0.0 | ||||||
| 05 | 11:35 | SW 44 G 61 | 16.09 | Overcast and Windy | BKN075 OVC100 | -2 | -7 | 69% | -10 | 76.3 | 0.0 | ||||||
| 05 | 11:15 | SW 37 G 57 | 16.09 | Partly Cloudy and Breezy | SCT065 SCT085 SCT100 | -1 | -7 | 64% | -8 | 76.3 | 0.0 | ||||||
| 05 | 10:55 | SW 33 G 48 | 16.09 | Mostly Cloudy and Breezy | SCT065 BKN095 | -1 | -7 | 64% | -8 | 76.3 | 0.0 | ||||||
| 05 | 10:35 | SW 35 G 46 | 16.09 | Mostly Cloudy and Breezy | SCT065 SCT070 BKN100 | -2 | -8 | 64% | -9 | 76.35 | 0.0 | ||||||
| 05 | 10:15 | SW 28 G 41 | 16.09 | Overcast | SCT065 BKN075 OVC095 | -1 | -8 | 59% | -7 | 76.35 | 0.0 | ||||||
| 05 | 09:55 | SW 20 G 35 | 16.09 | Overcast | OVC065 | -3 | -8 | 69% | -9 | 76.38 | 0.0 | ||||||
| 05 | 09:35 | SW 22 G 28 | 16.09 | Overcast | SCT055 OVC070 | -3 | -8 | 69% | -9 | 76.38 | 0.0 | ||||||
| 05 | 09:15 | SW 20 | 16.09 | Overcast | SCT055 OVC070 | -3 | -8 | 69% | -9 | 76.38 | 0.0 | ||||||
| 05 | 08:55 | SW 17 | 16.09 | Overcast | OVC055 | -4 | -8 | 74% | -9 | 76.43 | 0.0 | ||||||
| 05 | 08:35 | SW 22 G 28 | 16.09 | Overcast | SCT055 BKN075 OVC100 | -4 | -8 | 74% | -10 | 76.43 | 0.0 | ||||||
| 05 | 08:15 | SW 22 G 28 | 16.09 | Overcast | SCT100 OVC120 | -3 | -9 | 64% | -9 | 76.43 | 0.0 | ||||||
| 05 | 07:55 | SW 19 | 16.09 | Partly Cloudy | SCT085 SCT120 | -4 | -9 | 69% | -10 | 76.45 | 0.0 | ||||||
| 05 | 07:35 | SW 15 | 16.09 | Fair | CLR | -5 | -10 | 68% | -10 | 76.45 | 0.0 | ||||||
| 05 | 07:15 | SW 20 G 31 | 16.09 | Fair | CLR | -4 | -10 | 63% | -10 | 76.43 | 0.0 | ||||||
| 05 | 06:55 | SW 22 G 30 | 16.09 | Fair | CLR | -5 | -10 | 68% | -11 | 76.43 | 0.0 | ||||||
| Date | Time (mdt) | Wind (kph) | Vis. (km) | Weather | Sky Cond. | Air | Dwpt | Max. | Min. | Relative Humidity | Wind Chill (°C) | Heat Index (°C) | altimeter (cm) | sea level (mb) | 1 hr | 3 hr | 6 hr |
| 6 hour | |||||||||||||||||
| Temperature (ºC) | Pressure | Precipitation (cm) | |||||||||||||||